sensor_id;sensor_type;location;lat;lon;timestamp;pressure;altitude;pressure_sealevel;temperature;humidity
11440;BME280;5776;51.814;4.510;2023-02-04T00:00:19;103397.13;;;8.50;100.00
11440;BME280;5776;51.814;4.510;2023-02-04T00:02:45;103395.25;;;8.51;100.00
11440;BME280;5776;51.814;4.510;2023-02-04T00:05:12;103403.56;;;8.49;100.00
11440;BME280;5776;51.814;4.510;2023-02-04T00:07:38;103396.25;;;8.50;100.00
11440;BME280;5776;51.814;4.510;2023-02-04T00:10:05;103388.56;;;8.47;100.00
11440;BME280;5776;51.814;4.510;2023-02-04T00:12:32;103393.97;;;8.47;100.00
11440;BME280;5776;51.814;4.510;2023-02-04T00:14:59;103388.56;;;8.47;100.00
11440;BME280;5776;51.814;4.510;2023-02-04T00:17:25;103394.81;;;8.47;100.00
11440;BME280;5776;51.814;4.510;2023-02-04T00:19:50;103400.22;;;8.47;100.00
11440;BME280;5776;51.814;4.510;2023-02-04T00:22:16;103393.97;;;8.47;100.00
11440;BME280;5776;51.814;4.510;2023-02-04T00:24:42;103395.88;;;8.46;100.00
11440;BME280;5776;51.814;4.510;2023-02-04T00:27:13;103398.56;;;8.46;100.00
11440;BME280;5776;51.814;4.510;2023-02-04T00:29:39;103397.75;;;8.46;100.00
11440;BME280;5776;51.814;4.510;2023-02-04T00:32:05;103392.34;;;8.46;100.00
11440;BME280;5776;51.814;4.510;2023-02-04T00:34:30;103395.03;;;8.46;100.00
11440;BME280;5776;51.814;4.510;2023-02-04T00:36:56;103397.75;;;8.46;100.00
11440;BME280;5776;51.814;4.510;2023-02-04T00:39:22;103408.59;;;8.46;100.00
11440;BME280;5776;51.814;4.510;2023-02-04T00:41:48;103406.06;;;8.44;100.00
11440;BME280;5776;51.814;4.510;2023-02-04T00:44:14;103396.88;;;8.45;100.00
11440;BME280;5776;51.814;4.510;2023-02-04T00:46:41;103409.59;;;8.44;100.00
11440;BME280;5776;51.814;4.510;2023-02-04T00:49:08;103412.94;;;8.47;100.00
11440;BME280;5776;51.814;4.510;2023-02-04T00:51:39;103409.41;;;8.46;100.00
11440;BME280;5776;51.814;4.510;2023-02-04T00:54:06;103412.31;;;8.44;100.00
11440;BME280;5776;51.814;4.510;2023-02-04T00:56:33;103406.91;;;8.44;100.00
11440;BME280;5776;51.814;4.510;2023-02-04T00:58:59;103413.56;;;8.42;100.00
11440;BME280;5776;51.814;4.510;2023-02-04T01:01:25;103408.97;;;8.42;100.00
11440;BME280;5776;51.814;4.510;2023-02-04T01:03:51;103411.09;;;8.40;100.00
11440;BME280;5776;51.814;4.510;2023-02-04T01:06:17;103413.56;;;8.42;100.00
11440;BME280;5776;51.814;4.510;2023-02-04T01:08:43;103412.53;;;8.43;100.00
11440;BME280;5776;51.814;4.510;2023-02-04T01:11:09;103416.28;;;8.42;100.00
11440;BME280;5776;51.814;4.510;2023-02-04T01:13:34;103418.16;;;8.41;100.00
11440;BME280;5776;51.814;4.510;2023-02-04T01:16:00;103427.94;;;8.42;100.00
11440;BME280;5776;51.814;4.510;2023-02-04T01:18:26;103424.41;;;8.42;100.00
11440;BME280;5776;51.814;4.510;2023-02-04T01:20:52;103422.53;;;8.42;100.00
11440;BME280;5776;51.814;4.510;2023-02-04T01:23:18;103429.00;;;8.41;100.00
11440;BME280;5776;51.814;4.510;2023-02-04T01:25:44;103437.13;;;8.41;100.00
11440;BME280;5776;51.814;4.510;2023-02-04T01:28:10;103433.59;;;8.41;100.00
11440;BME280;5776;51.814;4.510;2023-02-04T01:30:36;103425.66;;;8.39;100.00
11440;BME280;5776;51.814;4.510;2023-02-04T01:33:02;103430.06;;;8.40;100.00
11440;BME280;5776;51.814;4.510;2023-02-04T01:35:27;103431.06;;;8.39;100.00
11440;BME280;5776;51.814;4.510;2023-02-04T01:37:53;103423.78;;;8.40;100.00
11440;BME280;5776;51.814;4.510;2023-02-04T01:40:19;103425.66;;;8.39;100.00
11440;BME280;5776;51.814;4.510;2023-02-04T01:42:45;103425.66;;;8.39;100.00
11440;BME280;5776;51.814;4.510;2023-02-04T01:45:11;103428.38;;;8.39;100.00
11440;BME280;5776;51.814;4.510;2023-02-04T01:47:38;103436.50;;;8.39;100.00
11440;BME280;5776;51.814;4.510;2023-02-04T01:50:05;103435.63;;;8.39;100.00
11440;BME280;5776;51.814;4.510;2023-02-04T01:52:34;103443.94;;;8.37;100.00
11440;BME280;5776;51.814;4.510;2023-02-04T01:55:01;103449.38;;;8.37;100.00
11440;BME280;5776;51.814;4.510;2023-02-04T01:57:27;103452.06;;;8.37;100.00
11440;BME280;5776;51.814;4.510;2023-02-04T01:59:54;103451.25;;;8.37;100.00
11440;BME280;5776;51.814;4.510;2023-02-04T02:05:08;103458.34;;;8.38;100.00
11440;BME280;5776;51.814;4.510;2023-02-04T02:07:35;103455.63;;;8.38;100.00
11440;BME280;5776;51.814;4.510;2023-02-04T02:10:05;103460.19;;;8.37;100.00
11440;BME280;5776;51.814;4.510;2023-02-04T02:12:32;103453.75;;;8.38;100.00
11440;BME280;5776;51.814;4.510;2023-02-04T02:14:59;103464.59;;;8.38;100.00
11440;BME280;5776;51.814;4.510;2023-02-04T02:17:25;103461.88;;;8.38;100.00
11440;BME280;5776;51.814;4.510;2023-02-04T02:19:51;103467.31;;;8.38;100.00
11440;BME280;5776;51.814;4.510;2023-02-04T02:22:24;103470.00;;;8.38;100.00
11440;BME280;5776;51.814;4.510;2023-02-04T02:24:51;103463.56;;;8.39;100.00
11440;BME280;5776;51.814;4.510;2023-02-04T02:27:17;103467.31;;;8.38;100.00
11440;BME280;5776;51.814;4.510;2023-02-04T02:29:43;103461.88;;;8.38;100.00
11440;BME280;5776;51.814;4.510;2023-02-04T02:32:11;103458.16;;;8.39;100.00
11440;BME280;5776;51.814;4.510;2023-02-04T02:34:37;103450.22;;;8.38;100.00
11440;BME280;5776;51.814;4.510;2023-02-04T02:37:05;103460.00;;;8.39;100.00
11440;BME280;5776;51.814;4.510;2023-02-04T02:39:32;103455.63;;;8.38;100.00
11440;BME280;5776;51.814;4.510;2023-02-04T02:41:58;103464.59;;;8.38;100.00
11440;BME280;5776;51.814;4.510;2023-02-04T02:44:25;103466.47;;;8.38;100.00
11440;BME280;5776;51.814;4.510;2023-02-04T02:46:52;103476.44;;;8.37;100.00
11440;BME280;5776;51.814;4.510;2023-02-04T02:49:19;103481.88;;;8.37;100.00
11440;BME280;5776;51.814;4.510;2023-02-04T02:51:46;103482.72;;;8.38;100.00
11440;BME280;5776;51.814;4.510;2023-02-04T02:54:26;103479.16;;;8.37;100.00
11440;BME280;5776;51.814;4.510;2023-02-04T02:56:53;103477.50;;;8.36;100.00
11440;BME280;5776;51.814;4.510;2023-02-04T02:59:20;103475.44;;;8.38;100.00
11440;BME280;5776;51.814;4.510;2023-02-04T03:01:48;103481.25;;;8.35;100.00
11440;BME280;5776;51.814;4.510;2023-02-04T03:04:16;103480.22;;;8.36;100.00
11440;BME280;5776;51.814;4.510;2023-02-04T03:06:44;103478.56;;;8.35;100.00
11440;BME280;5776;51.814;4.510;2023-02-04T03:09:10;103471.25;;;8.36;100.00
11440;BME280;5776;51.814;4.510;2023-02-04T03:11:36;103467.72;;;8.35;100.00
11440;BME280;5776;51.814;4.510;2023-02-04T03:14:03;103468.56;;;8.36;100.00
11440;BME280;5776;51.814;4.510;2023-02-04T03:16:31;103460.44;;;8.36;100.00
11440;BME280;5776;51.814;4.510;2023-02-04T03:19:00;103468.56;;;8.36;100.00
11440;BME280;5776;51.814;4.510;2023-02-04T03:21:27;103467.72;;;8.35;100.00
11440;BME280;5776;51.814;4.510;2023-02-04T03:23:53;103469.56;;;8.35;100.00
11440;BME280;5776;51.814;4.510;2023-02-04T03:26:22;103482.28;;;8.34;100.00
11440;BME280;5776;51.814;4.510;2023-02-04T03:28:48;103478.56;;;8.35;100.00
11440;BME280;5776;51.814;4.510;2023-02-04T03:31:14;103493.13;;;8.34;100.00
11440;BME280;5776;51.814;4.510;2023-02-04T03:33:41;103496.06;;;8.33;100.00
11440;BME280;5776;51.814;4.510;2023-02-04T03:36:07;103493.13;;;8.34;100.00
11440;BME280;5776;51.814;4.510;2023-02-04T03:38:33;103489.78;;;8.32;100.00
11440;BME280;5776;51.814;4.510;2023-02-04T03:40:59;103482.72;;;8.31;100.00
11440;BME280;5776;51.814;4.510;2023-02-04T03:43:26;103479.19;;;8.31;100.00
11440;BME280;5776;51.814;4.510;2023-02-04T03:45:52;103477.28;;;8.31;100.00
11440;BME280;5776;51.814;4.510;2023-02-04T03:48:18;103477.28;;;8.31;100.00
11440;BME280;5776;51.814;4.510;2023-02-04T03:50:44;103475.41;;;8.32;100.00
11440;BME280;5776;51.814;4.510;2023-02-04T03:53:10;103468.34;;;8.31;100.00
11440;BME280;5776;51.814;4.510;2023-02-04T03:55:36;103482.31;;;8.28;100.00
11440;BME280;5776;51.814;4.510;2023-02-04T03:58:02;103481.69;;;8.26;100.00
11440;BME280;5776;51.814;4.510;2023-02-04T04:00:29;103487.28;;;8.24;100.00
11440;BME280;5776;51.814;4.510;2023-02-04T04:02:57;103493.75;;;8.23;100.00
11440;BME280;5776;51.814;4.510;2023-02-04T04:05:23;103496.47;;;8.23;100.00
11440;BME280;5776;51.814;4.510;2023-02-04T04:07:50;103502.72;;;8.23;100.00
11440;BME280;5776;51.814;4.510;2023-02-04T04:10:16;103504.78;;;8.21;100.00
11440;BME280;5776;51.814;4.510;2023-02-04T04:12:42;103503.13;;;8.20;100.00
11440;BME280;5776;51.814;4.510;2023-02-04T04:15:08;103511.25;;;8.20;100.00
11440;BME280;5776;51.814;4.510;2023-02-04T04:17:34;103512.91;;;8.21;100.00
11440;BME280;5776;51.814;4.510;2023-02-04T04:19:59;103517.50;;;8.21;100.00
11440;BME280;5776;51.814;4.510;2023-02-04T04:22:25;103523.53;;;8.23;100.00
11440;BME280;5776;51.814;4.510;2023-02-04T04:24:51;103522.91;;;8.21;100.00
11440;BME280;5776;51.814;4.510;2023-02-04T04:27:17;103523.94;;;8.20;100.00
11440;BME280;5776;51.814;4.510;2023-02-04T04:29:43;103522.28;;;8.19;100.00
11440;BME280;5776;51.814;4.510;2023-02-04T04:32:09;103523.31;;;8.18;100.00
11440;BME280;5776;51.814;4.510;2023-02-04T04:34:35;103522.47;;;8.17;100.00
11440;BME280;5776;51.814;4.510;2023-02-04T04:37:01;103530.41;;;8.19;100.00
11440;BME280;5776;51.814;4.510;2023-02-04T04:39:27;103534.75;;;8.20;100.00
11440;BME280;5776;51.814;4.510;2023-02-04T04:41:53;103529.34;;;8.20;100.00
11440;BME280;5776;51.814;4.510;2023-02-04T04:44:19;103526.44;;;8.21;100.00
11440;BME280;5776;51.814;4.510;2023-02-04T04:46:45;103546.22;;;8.22;100.00
11440;BME280;5776;51.814;4.510;2023-02-04T04:49:11;103541.84;;;8.21;100.00
11440;BME280;5776;51.814;4.510;2023-02-04T04:51:37;103539.16;;;8.21;100.00
11440;BME280;5776;51.814;4.510;2023-02-04T04:54:03;103533.72;;;8.21;100.00
11440;BME280;5776;51.814;4.510;2023-02-04T04:56:29;103529.34;;;8.20;100.00
11440;BME280;5776;51.814;4.510;2023-02-04T04:58:54;103529.34;;;8.20;100.00
11440;BME280;5776;51.814;4.510;2023-02-04T05:01:20;103537.47;;;8.20;100.00
11440;BME280;5776;51.814;4.510;2023-02-04T05:03:47;103534.97;;;8.18;100.00
11440;BME280;5776;51.814;4.510;2023-02-04T05:06:13;103533.72;;;8.21;100.00
11440;BME280;5776;51.814;4.510;2023-02-04T05:08:39;103535.38;;;8.22;100.00
11440;BME280;5776;51.814;4.510;2023-02-04T05:11:05;103538.50;;;8.19;100.00
11440;BME280;5776;51.814;4.510;2023-02-04T05:13:31;103536.44;;;8.21;100.00
11440;BME280;5776;51.814;4.510;2023-02-04T05:15:57;103543.75;;;8.20;100.00
11440;BME280;5776;51.814;4.510;2023-02-04T05:18:23;103545.59;;;8.20;100.00
11440;BME280;5776;51.814;4.510;2023-02-04T05:20:49;103544.56;;;8.21;100.00
11440;BME280;5776;51.814;4.510;2023-02-04T05:23:15;103554.75;;;8.19;100.00
11440;BME280;5776;51.814;4.510;2023-02-04T05:25:41;103553.94;;;8.18;100.00
11440;BME280;5776;51.814;4.510;2023-02-04T05:28:07;103551.00;;;8.20;100.00
11440;BME280;5776;51.814;4.510;2023-02-04T05:30:33;103549.34;;;8.19;100.00
11440;BME280;5776;51.814;4.510;2023-02-04T05:32:59;103556.41;;;8.20;100.00
11440;BME280;5776;51.814;4.510;2023-02-04T05:35:25;103558.53;;;8.18;100.00
11440;BME280;5776;51.814;4.510;2023-02-04T05:37:51;103559.34;;;8.18;100.00
11440;BME280;5776;51.814;4.510;2023-02-04T05:40:17;103546.63;;;8.19;100.00
11440;BME280;5776;51.814;4.510;2023-02-04T05:42:43;103554.75;;;8.19;100.00
11440;BME280;5776;51.814;4.510;2023-02-04T05:45:13;103566.66;;;8.18;100.00
11440;BME280;5776;51.814;4.510;2023-02-04T05:47:39;103560.19;;;8.19;100.00
11440;BME280;5776;51.814;4.510;2023-02-04T05:50:06;103558.53;;;8.18;100.00
11440;BME280;5776;51.814;4.510;2023-02-04T05:52:32;103558.53;;;8.18;100.00
11440;BME280;5776;51.814;4.510;2023-02-04T05:54:58;103558.91;;;8.15;100.00
11440;BME280;5776;51.814;4.510;2023-02-04T05:57:24;103563.31;;;8.16;100.00
11440;BME280;5776;51.814;4.510;2023-02-04T05:59:49;103566.00;;;8.16;100.00
11440;BME280;5776;51.814;4.510;2023-02-04T06:02:15;103566.00;;;8.16;100.00
11440;BME280;5776;51.814;4.510;2023-02-04T06:04:41;103566.00;;;8.16;100.00
11440;BME280;5776;51.814;4.510;2023-02-04T06:07:07;103572.25;;;8.16;100.00
11440;BME280;5776;51.814;4.510;2023-02-04T06:09:33;103574.31;;;8.14;100.00
11440;BME280;5776;51.814;4.510;2023-02-04T06:12:00;103577.66;;;8.16;100.00
11440;BME280;5776;51.814;4.510;2023-02-04T06:14:29;103576.63;;;8.17;100.00
11440;BME280;5776;51.814;4.510;2023-02-04T06:16:55;103572.44;;;8.15;100.00
11440;BME280;5776;51.814;4.510;2023-02-04T06:19:20;103578.91;;;8.14;100.00
11440;BME280;5776;51.814;4.510;2023-02-04T06:21:47;103574.31;;;8.14;100.00
11440;BME280;5776;51.814;4.510;2023-02-04T06:24:13;103584.13;;;8.15;100.00
11440;BME280;5776;51.814;4.510;2023-02-04T06:26:39;103596.81;;;8.15;100.00
11440;BME280;5776;51.814;4.510;2023-02-04T06:29:05;103590.56;;;8.14;100.00
11440;BME280;5776;51.814;4.510;2023-02-04T06:31:31;103596.63;;;8.16;100.00
11440;BME280;5776;51.814;4.510;2023-02-04T06:33:57;103595.16;;;8.14;100.00
11440;BME280;5776;51.814;4.510;2023-02-04T06:36:23;103603.28;;;8.14;100.00
11440;BME280;5776;51.814;4.510;2023-02-04T06:38:48;103610.56;;;8.13;100.00
11440;BME280;5776;51.814;4.510;2023-02-04T06:41:14;103604.31;;;8.13;100.00
11440;BME280;5776;51.814;4.510;2023-02-04T06:43:40;103606.81;;;8.14;100.00
11440;BME280;5776;51.814;4.510;2023-02-04T06:46:06;103609.50;;;8.14;100.00
11440;BME280;5776;51.814;4.510;2023-02-04T06:48:32;103618.47;;;8.15;100.00
11440;BME280;5776;51.814;4.510;2023-02-04T06:50:58;103621.16;;;8.15;100.00
11440;BME280;5776;51.814;4.510;2023-02-04T06:53:24;103620.16;;;8.16;100.00
11440;BME280;5776;51.814;4.510;2023-02-04T06:55:49;103614.75;;;8.16;100.00
11440;BME280;5776;51.814;4.510;2023-02-04T06:58:16;103620.16;;;8.16;100.00
11440;BME280;5776;51.814;4.510;2023-02-04T07:00:42;103620.16;;;8.16;100.00
11440;BME280;5776;51.814;4.510;2023-02-04T07:03:08;103628.28;;;8.16;100.00
11440;BME280;5776;51.814;4.510;2023-02-04T07:05:35;103623.06;;;8.14;100.00
11440;BME280;5776;51.814;4.510;2023-02-04T07:08:01;103627.22;;;8.17;100.00
11440;BME280;5776;51.814;4.510;2023-02-04T07:10:27;103624.94;;;8.14;100.00
11440;BME280;5776;51.814;4.510;2023-02-04T07:12:53;103635.75;;;8.14;100.00
11440;BME280;5776;51.814;4.510;2023-02-04T07:15:19;103637.63;;;8.13;100.00
11440;BME280;5776;51.814;4.510;2023-02-04T07:17:44;103636.81;;;8.13;100.00
11440;BME280;5776;51.814;4.510;2023-02-04T07:20:11;103639.72;;;8.11;100.00
11440;BME280;5776;51.814;4.510;2023-02-04T07:22:37;103636.81;;;8.13;100.00
11440;BME280;5776;51.814;4.510;2023-02-04T07:25:03;103635.56;;;8.15;100.00
11440;BME280;5776;51.814;4.510;2023-02-04T07:27:29;103634.09;;;8.13;100.00
11440;BME280;5776;51.814;4.510;2023-02-04T07:29:55;103636.81;;;8.13;100.00
11440;BME280;5776;51.814;4.510;2023-02-04T07:32:21;103641.16;;;8.14;100.00
11440;BME280;5776;51.814;4.510;2023-02-04T07:34:46;103640.34;;;8.13;100.00
11440;BME280;5776;51.814;4.510;2023-02-04T07:37:13;103649.09;;;8.15;100.00
11440;BME280;5776;51.814;4.510;2023-02-04T07:39:39;103643.47;;;8.17;100.00
11440;BME280;5776;51.814;4.510;2023-02-04T07:42:05;103649.09;;;8.15;100.00
11440;BME280;5776;51.814;4.510;2023-02-04T07:44:31;103646.41;;;8.15;100.00
11440;BME280;5776;51.814;4.510;2023-02-04T07:46:57;103646.63;;;8.27;100.00
11440;BME280;5776;51.814;4.510;2023-02-04T07:49:23;103651.00;;;8.28;100.00
11440;BME280;5776;51.814;4.510;2023-02-04T07:51:49;103651.22;;;8.27;100.00
11440;BME280;5776;51.814;4.510;2023-02-04T07:54:15;103651.44;;;8.25;100.00
11440;BME280;5776;51.814;4.510;2023-02-04T07:56:40;103646.00;;;8.25;100.00
11440;BME280;5776;51.814;4.510;2023-02-04T07:59:06;103655.59;;;8.28;100.00
11440;BME280;5776;51.814;4.510;2023-02-04T08:01:32;103661.03;;;8.28;100.00
11440;BME280;5776;51.814;4.510;2023-02-04T08:03:58;103667.25;;;8.28;100.00
11440;BME280;5776;51.814;4.510;2023-02-04T08:06:24;103661.84;;;8.28;100.00
11440;BME280;5776;51.814;4.510;2023-02-04T08:08:50;103672.69;;;8.28;100.00
11440;BME280;5776;51.814;4.510;2023-02-04T08:11:16;103672.94;;;8.40;100.00
11440;BME280;5776;51.814;4.510;2023-02-04T08:13:42;103673.13;;;8.38;100.00
11440;BME280;5776;51.814;4.510;2023-02-04T08:16:08;103672.47;;;8.36;100.00
11440;BME280;5776;51.814;4.510;2023-02-04T08:18:34;103672.47;;;8.36;100.00
11440;BME280;5776;51.814;4.510;2023-02-04T08:21:00;103673.13;;;8.38;100.00
11440;BME280;5776;51.814;4.510;2023-02-04T08:23:26;103668.91;;;8.29;100.00
11440;BME280;5776;51.814;4.510;2023-02-04T08:25:52;103671.59;;;8.22;100.00
11440;BME280;5776;51.814;4.510;2023-02-04T08:28:18;103674.53;;;8.21;100.00
11440;BME280;5776;51.814;4.510;2023-02-04T08:30:44;103683.31;;;8.36;100.00
11440;BME280;5776;51.814;4.510;2023-02-04T08:33:10;103673.16;;;8.45;100.00
11440;BME280;5776;51.814;4.510;2023-02-04T08:35:36;103686.09;;;8.50;100.00
11440;BME280;5776;51.814;4.510;2023-02-04T08:38:01;103684.00;;;8.52;100.00
11440;BME280;5776;51.814;4.510;2023-02-04T08:40:28;103684.00;;;8.52;100.00
11440;BME280;5776;51.814;4.510;2023-02-04T08:42:53;103676.53;;;8.54;100.00
11440;BME280;5776;51.814;4.510;2023-02-04T08:45:19;103684.66;;;8.54;100.00
11440;BME280;5776;51.814;4.510;2023-02-04T08:47:45;103689.88;;;8.55;100.00
11440;BME280;5776;51.814;4.510;2023-02-04T08:50:11;103688.19;;;8.54;100.00
11440;BME280;5776;51.814;4.510;2023-02-04T08:52:37;103693.41;;;8.56;100.00
11440;BME280;5776;51.814;4.510;2023-02-04T08:55:04;103692.34;;;8.57;100.00
11440;BME280;5776;51.814;4.510;2023-02-04T08:57:29;103695.69;;;8.59;100.00
11440;BME280;5776;51.814;4.510;2023-02-04T08:59:55;103694.03;;;8.58;100.00
11440;BME280;5776;51.814;4.510;2023-02-04T09:02:21;103702.78;;;8.53;100.00
11440;BME280;5776;51.814;4.510;2023-02-04T09:04:47;103710.03;;;8.39;100.00
11440;BME280;5776;51.814;4.510;2023-02-04T09:07:13;103715.81;;;8.36;100.00
11440;BME280;5776;51.814;4.510;2023-02-04T09:09:39;103716.25;;;8.40;100.00
11440;BME280;5776;51.814;4.510;2023-02-04T09:12:04;103728.31;;;8.31;100.00
11440;BME280;5776;51.814;4.510;2023-02-04T09:14:30;103729.78;;;8.33;100.00
11440;BME280;5776;51.814;4.510;2023-02-04T09:16:56;103724.94;;;8.29;100.00
11440;BME280;5776;51.814;4.510;2023-02-04T09:19:22;103735.97;;;8.27;100.00
11440;BME280;5776;51.814;4.510;2023-02-04T09:21:51;103734.72;;;8.23;100.00
11440;BME280;5776;51.814;4.510;2023-02-04T09:24:17;103736.63;;;8.29;100.00
11440;BME280;5776;51.814;4.510;2023-02-04T09:26:43;103744.09;;;8.27;100.00
11440;BME280;5776;51.814;4.510;2023-02-04T09:29:09;103742.66;;;8.31;100.00
11440;BME280;5776;51.814;4.510;2023-02-04T09:31:35;103742.03;;;8.29;100.00
11440;BME280;5776;51.814;4.510;2023-02-04T09:34:01;103737.66;;;8.28;100.00
11440;BME280;5776;51.814;4.510;2023-02-04T09:36:27;103735.59;;;8.30;100.00
11440;BME280;5776;51.814;4.510;2023-02-04T09:38:55;103739.56;;;8.34;100.00
11440;BME280;5776;51.814;4.510;2023-02-04T09:41:21;103731.59;;;8.26;100.00
11440;BME280;5776;51.814;4.510;2023-02-04T09:43:47;103735.72;;;8.15;100.00
11440;BME280;5776;51.814;4.510;2023-02-04T09:46:19;103737.34;;;8.10;100.00
11440;BME280;5776;51.814;4.510;2023-02-04T09:48:46;103742.97;;;8.08;100.00
11440;BME280;5776;51.814;4.510;2023-02-04T09:51:15;103746.13;;;8.12;100.00
11440;BME280;5776;51.814;4.510;2023-02-04T09:53:41;103748.03;;;8.18;100.00
11440;BME280;5776;51.814;4.510;2023-02-04T09:56:09;103743.22;;;8.20;100.00
11440;BME280;5776;51.814;4.510;2023-02-04T09:58:35;103753.50;;;8.31;100.00
11440;BME280;5776;51.814;4.510;2023-02-04T10:01:13;103748.72;;;8.33;100.00
11440;BME280;5776;51.814;4.510;2023-02-04T10:03:41;103752.16;;;8.49;100.00
11440;BME280;5776;51.814;4.510;2023-02-04T10:06:16;103758.31;;;8.36;100.00
11440;BME280;5776;51.814;4.510;2023-02-04T10:08:43;103761.81;;;8.23;100.00
11440;BME280;5776;51.814;4.510;2023-02-04T10:11:11;103759.31;;;8.28;100.00
11440;BME280;5776;51.814;4.510;2023-02-04T10:13:42;103757.25;;;8.30;100.00
11440;BME280;5776;51.814;4.510;2023-02-04T10:16:17;103765.16;;;8.25;100.00
11440;BME280;5776;51.814;4.510;2023-02-04T10:18:44;103764.75;;;8.28;100.00
11440;BME280;5776;51.814;4.510;2023-02-04T10:21:39;103778.75;;;8.38;100.00
11440;BME280;5776;51.814;4.510;2023-02-04T10:24:15;103769.19;;;8.42;100.00
11440;BME280;5776;51.814;4.510;2023-02-04T10:26:42;103775.41;;;8.36;100.00
11440;BME280;5776;51.814;4.510;2023-02-04T10:29:20;103775.75;;;8.27;100.00
11440;BME280;5776;51.814;4.510;2023-02-04T10:31:49;103777.84;;;8.25;100.00
11440;BME280;5776;51.814;4.510;2023-02-04T10:34:17;103779.06;;;8.22;100.00
11440;BME280;5776;51.814;4.510;2023-02-04T10:36:46;103781.19;;;8.27;100.00
11440;BME280;5776;51.814;4.510;2023-02-04T10:39:17;103779.31;;;8.27;100.00
11440;BME280;5776;51.814;4.510;2023-02-04T10:41:45;103777.63;;;8.26;100.00
11440;BME280;5776;51.814;4.510;2023-02-04T10:44:13;103785.13;;;8.24;100.00
11440;BME280;5776;51.814;4.510;2023-02-04T10:46:39;103791.41;;;8.31;100.00
11440;BME280;5776;51.814;4.510;2023-02-04T10:49:21;103782.34;;;8.46;100.00
11440;BME280;5776;51.814;4.510;2023-02-04T10:51:48;103783.63;;;8.56;100.00
11440;BME280;5776;51.814;4.510;2023-02-04T10:54:14;103790.09;;;8.62;100.00
11440;BME280;5776;51.814;4.510;2023-02-04T10:56:59;103789.50;;;8.67;100.00
11440;BME280;5776;51.814;4.510;2023-02-04T10:59:27;103789.94;;;8.70;100.00
11440;BME280;5776;51.814;4.510;2023-02-04T11:01:55;103793.28;;;8.72;100.00
11440;BME280;5776;51.814;4.510;2023-02-04T11:04:23;103791.63;;;8.71;100.00
11440;BME280;5776;51.814;4.510;2023-02-04T11:06:49;103788.69;;;8.73;100.00
11440;BME280;5776;51.814;4.510;2023-02-04T11:09:17;103776.00;;;8.73;100.00
11440;BME280;5776;51.814;4.510;2023-02-04T11:11:45;103780.56;;;8.73;100.00
11440;BME280;5776;51.814;4.510;2023-02-04T11:14:27;103777.66;;;8.74;100.00
11440;BME280;5776;51.814;4.510;2023-02-04T11:16:54;103776.00;;;8.73;100.00
11440;BME280;5776;51.814;4.510;2023-02-04T11:19:37;103774.94;;;8.74;100.00
11440;BME280;5776;51.814;4.510;2023-02-04T11:22:50;103776.63;;;8.75;100.00
11440;BME280;5776;51.814;4.510;2023-02-04T11:24:51;103763.06;;;8.75;100.00
11440;BME280;5776;51.814;4.510;2023-02-04T11:29:48;103767.44;;;8.76;100.00
11440;BME280;5776;51.814;4.510;2023-02-04T11:32:30;103770.78;;;8.78;100.00
11440;BME280;5776;51.814;4.510;2023-02-04T11:37:40;103774.13;;;8.80;100.00
11440;BME280;5776;51.814;4.510;2023-02-04T11:40:28;103768.72;;;8.80;100.00
11440;BME280;5776;51.814;4.510;2023-02-04T11:43:10;103760.38;;;8.82;100.00
11440;BME280;5776;51.814;4.510;2023-02-04T11:45:39;103763.31;;;8.80;100.00
11440;BME280;5776;51.814;4.510;2023-02-04T11:48:17;103763.91;;;8.82;100.00
11440;BME280;5776;51.814;4.510;2023-02-04T11:50:57;103768.31;;;8.83;100.00
11440;BME280;5776;51.814;4.510;2023-02-04T11:53:30;103772.03;;;8.82;100.00
11440;BME280;5776;51.814;4.510;2023-02-04T11:55:57;103766.41;;;8.77;100.00
11440;BME280;5776;51.814;4.510;2023-02-04T11:58:24;103764.06;;;8.68;100.00
11440;BME280;5776;51.814;4.510;2023-02-04T12:00:51;103760.72;;;8.59;100.00
11440;BME280;5776;51.814;4.510;2023-02-04T12:03:24;103763.81;;;8.49;100.00
11440;BME280;5776;51.814;4.510;2023-02-04T12:05:51;103764.88;;;8.48;100.00
11440;BME280;5776;51.814;4.510;2023-02-04T12:11:31;103769.41;;;8.48;100.00
11440;BME280;5776;51.814;4.510;2023-02-04T12:13:48;103768.16;;;8.43;100.00
11440;BME280;5776;51.814;4.510;2023-02-04T12:16:14;103765.47;;;8.43;100.00
11440;BME280;5776;51.814;4.510;2023-02-04T12:18:40;103767.91;;;8.38;100.00
11440;BME280;5776;51.814;4.510;2023-02-04T12:21:06;103771.28;;;8.40;100.00
11440;BME280;5776;51.814;4.510;2023-02-04T12:23:32;103770.44;;;8.40;100.00
11440;BME280;5776;51.814;4.510;2023-02-04T12:25:58;103771.28;;;8.40;100.00
11440;BME280;5776;51.814;4.510;2023-02-04T12:28:25;103780.66;;;8.44;100.00
11440;BME280;5776;51.814;4.510;2023-02-04T12:30:52;103781.13;;;8.55;100.00
11440;BME280;5776;51.814;4.510;2023-02-04T12:33:18;103787.34;;;8.49;100.00
11440;BME280;5776;51.814;4.510;2023-02-04T12:35:44;103782.72;;;8.42;100.00
11440;BME280;5776;51.814;4.510;2023-02-04T12:38:10;103780.06;;;8.49;100.00
11440;BME280;5776;51.814;4.510;2023-02-04T12:40:37;103781.75;;;8.50;100.00
11440;BME280;5776;51.814;4.510;2023-02-04T12:43:03;103783.81;;;8.55;100.00
11440;BME280;5776;51.814;4.510;2023-02-04T12:45:29;103785.94;;;8.59;100.00
11440;BME280;5776;51.814;4.510;2023-02-04T12:47:54;103784.50;;;8.63;100.00
11440;BME280;5776;51.814;4.510;2023-02-04T12:50:20;103783.44;;;8.64;100.00
11440;BME280;5776;51.814;4.510;2023-02-04T12:52:58;103788.03;;;8.64;100.00
11440;BME280;5776;51.814;4.510;2023-02-04T12:55:25;103771.59;;;8.65;100.00
11440;BME280;5776;51.814;4.510;2023-02-04T12:57:52;103768.25;;;8.63;100.00
11440;BME280;5776;51.814;4.510;2023-02-04T13:00:19;103766.56;;;8.62;100.00
11440;BME280;5776;51.814;4.510;2023-02-04T13:02:46;103767.00;;;8.66;100.00
11440;BME280;5776;51.814;4.510;2023-02-04T13:05:13;103769.50;;;8.68;100.00
11440;BME280;5776;51.814;4.510;2023-02-04T13:07:40;103768.03;;;8.65;100.00
11440;BME280;5776;51.814;4.510;2023-02-04T13:10:08;103774.50;;;8.64;100.00